Time;durP1;ratioP1;P1;durP2;ratioP2;P2;SDS_P1;SDS_P2;PMS_P1;PMS_P2;Temp;Humidity;BMP_temperature;BMP_pressure;BME280_temperature;BME280_humidity;BME280_pressure;Samples;Min_cycle;Max_cycle;Signal;HPM_P1;HPM_P2
2022/03/20 00:01:26;;;;;;;33.10;26.63;;;3.60;99.90;;;;;;4990456;28;20206;-81
2022/03/20 00:03:55;;;;;;;29.00;24.53;;;3.60;99.90;;;;;;4970535;28;20453;-80
2022/03/20 00:06:22;;;;;;;27.50;24.07;;;3.70;99.90;;;;;;4989166;28;20204;-80
2022/03/20 00:08:52;;;;;;;30.40;25.77;;;3.60;99.90;;;;;;4969444;28;20281;-80
2022/03/20 00:11:18;;;;;;;31.33;26.20;;;3.60;99.90;;;;;;4988261;28;20216;-82
2022/03/20 00:13:46;;;;;;;27.43;24.37;;;3.60;99.90;;;;;;4988108;28;20437;-81
2022/03/20 00:16:15;;;;;;;25.80;23.07;;;3.60;99.90;;;;;;4987984;28;20595;-79
2022/03/20 00:18:42;;;;;;;28.83;24.23;;;3.60;99.90;;;;;;4991279;28;20218;-81
2022/03/20 00:21:11;;;;;;;27.17;23.17;;;3.60;99.90;;;;;;4988348;28;20448;-80
2022/03/20 00:23:39;;;;;;;29.17;25.90;;;3.60;99.90;;;;;;4994804;28;20432;-80
2022/03/20 00:26:05;;;;;;;29.43;24.23;;;3.60;99.90;;;;;;4970344;28;20453;-80
2022/03/20 00:28:33;;;;;;;27.53;24.23;;;3.50;99.90;;;;;;4986216;28;20236;-81
2022/03/20 00:31:01;;;;;;;30.17;24.70;;;3.50;99.90;;;;;;4991065;28;20457;-82
2022/03/20 00:33:28;;;;;;;25.80;23.00;;;3.50;99.90;;;;;;4993629;28;20206;-80
2022/03/20 00:35:55;;;;;;;32.93;25.43;;;3.50;99.90;;;;;;4990418;28;20217;-80
2022/03/20 00:38:24;;;;;;;28.70;24.23;;;3.50;99.90;;;;;;4970246;28;20576;-81
2022/03/20 00:40:50;;;;;;;34.07;27.47;;;3.50;99.90;;;;;;4985650;28;20444;-81
2022/03/20 00:43:17;;;;;;;29.67;25.03;;;3.50;99.90;;;;;;4973000;28;20202;-80
2022/03/20 00:45:44;;;;;;;30.23;25.83;;;3.50;99.90;;;;;;4995851;28;20450;-80
2022/03/20 00:48:11;;;;;;;29.20;25.93;;;3.50;99.90;;;;;;4995030;28;20624;-80
2022/03/20 00:50:38;;;;;;;30.20;25.43;;;3.50;99.90;;;;;;5002434;28;20207;-81
2022/03/20 00:53:05;;;;;;;30.80;25.90;;;3.50;99.90;;;;;;4978507;28;20205;-80
2022/03/20 00:55:33;;;;;;;27.90;23.40;;;3.50;99.90;;;;;;4987184;28;20202;-80
2022/03/20 00:58:00;;;;;;;28.87;24.23;;;3.60;99.90;;;;;;4995924;28;20216;-81
2022/03/20 01:00:27;;;;;;;27.57;24.03;;;3.60;99.90;;;;;;4989198;28;20195;-80
2022/03/20 01:02:54;;;;;;;27.50;24.50;;;3.60;99.90;;;;;;4996799;28;20208;-80
2022/03/20 01:05:21;;;;;;;30.47;25.73;;;3.60;99.90;;;;;;4977186;28;20452;-79
2022/03/20 01:07:48;;;;;;;28.50;24.23;;;3.60;99.90;;;;;;4992406;28;20227;-80
2022/03/20 01:10:15;;;;;;;27.87;24.33;;;3.60;99.90;;;;;;4978165;28;20205;-79
2022/03/20 01:12:44;;;;;;;29.60;25.80;;;3.60;99.90;;;;;;4991845;28;20440;-79
2022/03/20 01:15:13;;;;;;;30.27;24.93;;;3.60;99.90;;;;;;4979014;28;20456;-81
2022/03/20 01:17:40;;;;;;;32.10;26.13;;;3.50;99.90;;;;;;4989922;28;20512;-80
2022/03/20 01:20:09;;;;;;;33.77;26.03;;;3.50;99.90;;;;;;4996267;28;20436;-80
2022/03/20 01:22:37;;;;;;;28.43;25.23;;;3.50;99.90;;;;;;4993351;28;20463;-80
2022/03/20 01:25:05;;;;;;;30.27;25.27;;;3.50;99.90;;;;;;4997731;28;20209;-80
2022/03/20 01:27:32;;;;;;;28.00;25.10;;;3.50;99.90;;;;;;4999615;28;20461;-79
2022/03/20 01:30:00;;;;;;;30.00;26.30;;;3.40;99.90;;;;;;4993725;28;20236;-78
2022/03/20 01:32:28;;;;;;;30.53;26.07;;;3.40;99.90;;;;;;4996731;28;20816;-80
2022/03/20 01:34:55;;;;;;;27.77;24.80;;;3.50;99.90;;;;;;4991057;28;20973;-79
2022/03/20 01:37:23;;;;;;;35.20;26.70;;;3.50;99.90;;;;;;4992725;28;20515;-79
2022/03/20 01:39:52;;;;;;;27.07;24.23;;;3.40;99.90;;;;;;4993161;28;20201;-79
2022/03/20 01:42:19;;;;;;;29.00;24.37;;;3.40;99.90;;;;;;4994551;28;20240;-79
2022/03/20 01:44:46;;;;;;;28.53;24.23;;;3.40;99.90;;;;;;4999717;28;20460;-81
2022/03/20 01:47:15;;;;;;;30.23;24.40;;;3.30;99.90;;;;;;5027053;22;20496;-78
2022/03/20 01:49:41;;;;;;;32.60;28.20;;;3.30;99.90;;;;;;5066679;28;20924;-80
2022/03/20 01:52:13;;;;;;;31.73;26.40;;;3.30;99.90;;;;;;5070301;28;20433;-80
2022/03/20 01:54:44;;;;;;;36.80;27.50;;;3.20;99.90;;;;;;5067089;28;20197;-77
2022/03/20 01:57:13;;;;;;;30.53;25.97;;;3.20;99.90;;;;;;5048967;28;20521;-80
2022/03/20 01:59:41;;;;;;;29.77;26.53;;;3.10;99.90;;;;;;5054165;28;20429;-79
2022/03/20 02:02:08;;;;;;;37.30;28.37;;;3.00;99.90;;;;;;5058973;28;20504;-79
2022/03/20 02:04:38;;;;;;;33.47;27.33;;;3.00;99.90;;;;;;5054119;28;20453;-78
2022/03/20 02:07:06;;;;;;;29.00;25.90;;;3.00;99.90;;;;;;5053357;28;20187;-79
2022/03/20 02:09:36;;;;;;;34.13;27.13;;;3.00;99.90;;;;;;5036195;28;20206;-79
2022/03/20 02:12:05;;;;;;;31.60;25.63;;;3.00;99.90;;;;;;5035977;28;20552;-78
2022/03/20 02:14:33;;;;;;;26.33;23.43;;;3.00;99.90;;;;;;5035952;28;20465;-79
2022/03/20 02:17:00;;;;;;;31.83;27.60;;;2.90;99.90;;;;;;5053137;28;20567;-79
2022/03/20 02:19:28;;;;;;;32.70;26.60;;;3.00;99.90;;;;;;5036075;28;20996;-79
2022/03/20 02:21:57;;;;;;;30.37;25.43;;;3.00;99.90;;;;;;5053705;28;20453;-79
2022/03/20 02:24:32;;;;;;;33.50;26.47;;;3.10;99.90;;;;;;5053636;28;20435;-79
2022/03/20 02:27:11;;;;;;;33.57;27.20;;;3.10;99.90;;;;;;5049020;28;20440;-78
2022/03/20 02:29:39;;;;;;;30.83;25.67;;;3.10;99.90;;;;;;5047533;28;20563;-79
2022/03/20 02:32:08;;;;;;;27.57;24.57;;;3.20;99.90;;;;;;5050577;28;20468;-79
2022/03/20 02:34:36;;;;;;;28.87;25.03;;;3.20;99.90;;;;;;5053486;28;20874;-79
2022/03/20 02:37:08;;;;;;;28.37;25.43;;;3.20;99.90;;;;;;5034998;28;20479;-79
2022/03/20 02:39:36;;;;;;;28.90;25.40;;;3.30;99.90;;;;;;5053400;28;20490;-79
2022/03/20 02:42:05;;;;;;;31.43;27.03;;;3.30;99.90;;;;;;5035471;28;20211;-80
2022/03/20 02:44:56;;;;;;;33.73;25.37;;;3.20;99.90;;;;;;5035488;28;20449;-79
2022/03/20 02:47:26;;;;;;;33.17;26.27;;;3.30;99.90;;;;;;5034558;28;20854;-79
2022/03/20 02:49:55;;;;;;;34.73;27.13;;;3.30;99.90;;;;;;5035378;28;20766;-79
2022/03/20 02:52:28;;;;;;;32.77;28.20;;;3.20;99.90;;;;;;5035335;28;20218;-79
2022/03/20 02:54:56;;;;;;;31.27;26.83;;;3.20;99.90;;;;;;5034958;28;20536;-79
2022/03/20 02:57:23;;;;;;;28.63;25.10;;;3.20;99.90;;;;;;5052776;28;20496;-79
2022/03/20 02:59:49;;;;;;;31.13;26.57;;;3.10;99.90;;;;;;5052975;28;20442;-79
2022/03/20 03:02:16;;;;;;;31.40;26.40;;;3.10;99.90;;;;;;5034216;28;20456;-80
2022/03/20 03:04:43;;;;;;;31.33;26.30;;;3.10;99.90;;;;;;5035199;28;21045;-79
2022/03/20 03:07:11;;;;;;;28.77;25.63;;;3.10;99.90;;;;;;5052252;28;20454;-79
2022/03/20 03:12:24;;;;;;;32.37;27.20;;;3.10;99.90;;;;;;5046394;28;20532;-79
2022/03/20 03:17:35;;;;;;;30.43;25.67;;;3.00;99.90;;;;;;5046788;28;20468;-80
2022/03/20 03:20:03;;;;;;;30.93;26.27;;;3.00;99.90;;;;;;5034830;28;20467;-81
2022/03/20 03:22:30;;;;;;;31.10;26.00;;;3.00;99.90;;;;;;5035081;28;20454;-79
2022/03/20 03:24:58;;;;;;;32.93;25.73;;;2.90;99.90;;;;;;5052312;28;20444;-79
2022/03/20 03:27:25;;;;;;;28.90;24.80;;;2.90;99.90;;;;;;5051893;28;20446;-79
2022/03/20 03:29:52;;;;;;;29.70;24.97;;;2.90;99.90;;;;;;5034666;28;20991;-79
2022/03/20 03:32:19;;;;;;;30.63;24.77;;;2.90;99.90;;;;;;5050301;28;20950;-79
2022/03/20 03:37:45;;;;;;;31.47;25.33;;;2.90;99.90;;;;;;4989972;28;20476;-79
2022/03/20 03:40:14;;;;;;;30.63;26.10;;;3.00;99.90;;;;;;4974582;28;20628;-79
2022/03/20 03:42:42;;;;;;;28.23;23.80;;;3.00;99.90;;;;;;4998166;28;20859;-78
2022/03/20 03:45:12;;;;;;;30.03;26.50;;;3.00;99.90;;;;;;5034762;28;20481;-79
2022/03/20 03:47:41;;;;;;;28.97;25.77;;;2.90;99.90;;;;;;5034832;28;20888;-79
2022/03/20 03:50:09;;;;;;;31.87;26.57;;;3.00;99.90;;;;;;5034095;28;20895;-79
2022/03/20 03:52:36;;;;;;;31.47;26.10;;;3.00;99.90;;;;;;5033997;28;20461;-79
2022/03/20 03:55:03;;;;;;;32.67;26.20;;;3.00;99.90;;;;;;5051939;28;20822;-79
2022/03/20 03:57:32;;;;;;;29.90;25.40;;;3.00;99.90;;;;;;5019404;28;21281;-79
2022/03/20 03:59:59;;;;;;;29.43;25.63;;;3.10;99.90;;;;;;5048532;28;21002;-80
2022/03/20 04:02:26;;;;;;;32.40;25.83;;;3.10;99.90;;;;;;5033698;28;20533;-79
2022/03/20 04:04:54;;;;;;;31.10;26.07;;;3.10;99.90;;;;;;5025216;28;20494;-79
2022/03/20 04:07:21;;;;;;;29.47;26.30;;;3.10;99.90;;;;;;5043618;28;21082;-78
2022/03/20 04:09:48;;;;;;;27.40;24.47;;;3.10;99.90;;;;;;5030155;28;20895;-79
2022/03/20 04:12:15;;;;;;;33.67;27.00;;;3.10;99.90;;;;;;5031817;28;20458;-79
2022/03/20 04:14:45;;;;;;;28.90;25.27;;;3.10;99.90;;;;;;5033547;28;20203;-79
2022/03/20 04:17:12;;;;;;;33.60;26.23;;;3.20;99.90;;;;;;5032770;28;20270;-78
2022/03/20 04:19:41;;;;;;;33.00;25.73;;;3.20;99.90;;;;;;5051474;28;20935;-79
2022/03/20 04:22:08;;;;;;;31.70;26.97;;;3.20;99.90;;;;;;5051723;28;20492;-79
2022/03/20 04:24:36;;;;;;;31.43;25.90;;;3.30;99.90;;;;;;5051802;28;20438;-79
2022/03/20 04:27:04;;;;;;;32.13;26.80;;;3.30;99.90;;;;;;5037920;28;20889;-78
2022/03/20 04:29:32;;;;;;;36.30;27.93;;;3.30;99.90;;;;;;5038610;28;21001;-80
2022/03/20 04:35:08;;;;;;;29.90;24.93;;;3.40;99.90;;;;;;5045323;28;20527;-81
2022/03/20 04:37:35;;;;;;;28.03;24.97;;;3.40;99.90;;;;;;5049868;28;20484;-81
2022/03/20 04:40:02;;;;;;;29.83;26.00;;;3.40;99.90;;;;;;5028893;28;20449;-82
2022/03/20 04:42:29;;;;;;;30.27;26.03;;;3.40;99.90;;;;;;5031767;28;20459;-81
2022/03/20 04:44:58;;;;;;;28.50;24.10;;;3.50;99.90;;;;;;5051006;28;20979;-81
2022/03/20 04:58:30;;;;;;;27.47;24.60;;;3.50;99.90;;;;;;5031595;28;20480;-79
2022/03/20 05:00:57;;;;;;;29.73;26.60;;;3.50;99.90;;;;;;5043413;28;20463;-79
2022/03/20 05:03:25;;;;;;;29.27;24.10;;;3.50;99.90;;;;;;5029597;28;20449;-79
2022/03/20 05:05:52;;;;;;;30.00;25.87;;;3.40;99.90;;;;;;5030518;28;21051;-79
2022/03/20 05:08:19;;;;;;;32.50;27.20;;;3.50;99.90;;;;;;5031966;28;20469;-79
2022/03/20 05:13:30;;;;;;;29.80;25.33;;;3.40;99.90;;;;;;5044411;28;20429;-79
2022/03/20 05:15:58;;;;;;;30.20;25.70;;;3.40;99.90;;;;;;5050338;28;20209;-79
2022/03/20 05:18:27;;;;;;;29.43;25.67;;;3.50;99.90;;;;;;5049184;28;20487;-80
2022/03/20 05:20:54;;;;;;;27.07;24.23;;;3.40;99.90;;;;;;5033330;28;20461;-80
2022/03/20 05:23:21;;;;;;;28.83;23.77;;;3.40;99.90;;;;;;5051157;28;20214;-80
2022/03/20 05:25:48;;;;;;;28.03;24.20;;;3.40;99.90;;;;;;5036879;28;20682;-79
2022/03/20 05:28:16;;;;;;;30.10;25.97;;;3.40;99.90;;;;;;5054063;28;20462;-80
2022/03/20 05:30:44;;;;;;;28.83;25.33;;;3.40;99.90;;;;;;5037083;28;20460;-79
2022/03/20 05:33:12;;;;;;;30.17;25.07;;;3.40;99.90;;;;;;5037284;28;20453;-78
2022/03/20 05:35:42;;;;;;;30.30;25.67;;;3.40;99.90;;;;;;5037305;28;20450;-79
2022/03/20 05:38:10;;;;;;;28.10;25.13;;;3.40;99.90;;;;;;5035945;28;20568;-81
2022/03/20 05:40:37;;;;;;;34.23;26.83;;;3.40;99.90;;;;;;5034018;28;20249;-79
2022/03/20 05:43:04;;;;;;;34.60;28.60;;;3.50;99.90;;;;;;5036271;28;20206;-79
2022/03/20 05:45:32;;;;;;;36.77;28.10;;;3.70;99.90;;;;;;5036481;28;20448;-79
2022/03/20 05:47:59;;;;;;;35.67;28.17;;;3.90;99.90;;;;;;5049489;28;20920;-78
2022/03/20 05:50:27;;;;;;;33.13;27.60;;;4.20;99.90;;;;;;5036578;28;20192;-78
2022/03/20 05:52:55;;;;;;;31.10;25.67;;;4.30;99.90;;;;;;5036401;28;20202;-81
2022/03/20 05:58:01;;;;;;;28.87;25.30;;;4.40;99.90;;;;;;5054312;28;20460;-80
2022/03/20 05:58:13;;;;;;;29.50;25.30;;;4.40;99.90;;;;;;5048782;28;20219;-80
2022/03/20 06:00:43;;;;;;;27.97;25.00;;;4.50;99.90;;;;;;5054320;28;20631;-78
2022/03/20 06:03:11;;;;;;;27.97;24.93;;;4.50;99.90;;;;;;5054223;28;20437;-78
2022/03/20 06:05:38;;;;;;;26.83;23.93;;;4.40;99.90;;;;;;5035881;28;20461;-78
2022/03/20 06:08:07;;;;;;;30.90;25.60;;;4.40;99.90;;;;;;5052847;28;20257;-79
2022/03/20 06:10:34;;;;;;;28.07;24.43;;;4.30;99.90;;;;;;5036350;28;20200;-78
2022/03/20 06:13:03;;;;;;;29.97;25.93;;;4.20;99.90;;;;;;5053838;28;20202;-79
2022/03/20 06:15:30;;;;;;;28.40;24.87;;;4.20;99.90;;;;;;5033413;28;20195;-79
2022/03/20 06:17:57;;;;;;;29.00;25.90;;;4.20;99.90;;;;;;5052522;28;20215;-78
2022/03/20 06:20:25;;;;;;;33.73;27.83;;;4.30;99.90;;;;;;5029984;28;20218;-80
2022/03/20 06:22:52;;;;;;;29.13;26.00;;;4.40;99.90;;;;;;5050986;28;20203;-78
2022/03/20 06:25:20;;;;;;;28.20;23.77;;;4.30;99.90;;;;;;5033417;28;20210;-79
2022/03/20 06:27:50;;;;;;;29.23;24.90;;;4.40;99.90;;;;;;5038803;28;20207;-79
2022/03/20 06:30:21;;;;;;;26.67;23.77;;;4.40;99.90;;;;;;5053425;28;20240;-79
2022/03/20 06:32:49;;;;;;;26.57;23.77;;;4.40;99.90;;;;;;5035092;28;20676;-79
2022/03/20 06:35:18;;;;;;;28.13;24.03;;;4.60;99.90;;;;;;5053468;28;20227;-78
2022/03/20 06:37:49;;;;;;;28.10;24.83;;;4.70;99.90;;;;;;5035210;28;20223;-79
2022/03/20 06:40:16;;;;;;;28.43;24.60;;;4.70;99.90;;;;;;5053041;28;20195;-79
2022/03/20 06:42:44;;;;;;;28.70;22.37;;;4.70;99.90;;;;;;5053189;28;20447;-79
2022/03/20 06:45:13;;;;;;;26.53;19.13;;;4.80;99.90;;;;;;5035671;28;20204;-80
2022/03/20 06:47:42;;;;;;;25.87;22.27;;;4.90;99.90;;;;;;5045959;28;20229;-79
2022/03/20 06:50:11;;;;;;;24.97;18.57;;;5.10;99.90;;;;;;5052282;28;20191;-78
2022/03/20 06:52:39;;;;;;;26.93;18.60;;;5.30;99.90;;;;;;5052712;28;20626;-78
2022/03/20 06:55:08;;;;;;;26.53;19.43;;;5.40;99.90;;;;;;5031823;28;20291;-79
2022/03/20 06:57:35;;;;;;;25.80;20.13;;;5.40;99.90;;;;;;5051982;28;20231;-79
2022/03/20 07:00:06;;;;;;;26.47;18.80;;;5.50;99.90;;;;;;5053402;28;20187;-79
2022/03/20 07:02:42;;;;;;;27.07;20.80;;;5.50;99.90;;;;;;5035207;28;20559;-79
2022/03/20 07:05:10;;;;;;;23.43;18.50;;;5.50;99.90;;;;;;5047078;28;20211;-81
2022/03/20 07:07:36;;;;;;;29.90;23.57;;;5.60;99.90;;;;;;5052201;28;20237;-80
2022/03/20 07:10:06;;;;;;;27.60;23.53;;;5.90;99.90;;;;;;5053106;28;20200;-84
2022/03/20 07:12:33;;;;;;;29.10;23.27;;;6.20;99.90;;;;;;5026622;28;20202;-80
2022/03/20 07:15:00;;;;;;;25.30;18.53;;;6.50;99.90;;;;;;5035833;28;20447;-79
2022/03/20 07:17:29;;;;;;;27.37;22.63;;;6.90;99.90;;;;;;5034207;28;20636;-81
2022/03/20 07:19:56;;;;;;;28.53;23.07;;;7.20;99.90;;;;;;5035005;28;20205;-80
2022/03/20 07:22:23;;;;;;;30.30;23.80;;;7.40;99.90;;;;;;5051125;28;20199;-80
2022/03/20 07:24:50;;;;;;;28.40;23.27;;;7.80;99.90;;;;;;5052473;28;20250;-80
2022/03/20 07:30:04;;;;;;;28.23;24.97;;;8.40;99.90;;;;;;5051540;28;20191;-81
2022/03/20 07:32:32;;;;;;;24.60;19.67;;;8.80;99.90;;;;;;5046559;28;20203;-80
2022/03/20 07:34:59;;;;;;;26.43;21.30;;;9.10;99.90;;;;;;5035350;28;20202;-80
2022/03/20 07:37:26;;;;;;;25.00;20.90;;;9.20;99.90;;;;;;5031346;28;20223;-82
2022/03/20 07:39:53;;;;;;;28.53;25.50;;;9.50;99.90;;;;;;5051356;28;20210;-80
2022/03/20 07:42:23;;;;;;;27.63;24.83;;;9.80;99.90;;;;;;5033651;28;20714;-81
2022/03/20 07:44:50;;;;;;;26.80;23.90;;;10.20;99.90;;;;;;5049542;28;20226;-82
2022/03/20 07:54:11;;;;;;;24.00;20.27;;;11.00;99.90;;;;;;4967384;28;20214;-84
2022/03/20 08:00:29;;;;;;;20.63;17.90;;;12.00;99.90;;;;;;4971801;28;20217;-81
2022/03/20 08:03:00;;;;;;;26.97;22.80;;;12.50;99.90;;;;;;5002889;28;20190;-83
2022/03/20 08:05:35;;;;;;;26.67;23.87;;;12.70;99.90;;;;;;5038241;28;20220;-83
2022/03/20 08:08:11;;;;;;;27.47;23.67;;;13.00;99.90;;;;;;5002222;28;20227;-83
2022/03/20 08:11:01;;;;;;;26.00;23.20;;;13.30;99.90;;;;;;5007364;28;20206;-82
2022/03/20 08:13:33;;;;;;;27.13;24.23;;;13.40;99.90;;;;;;4999030;28;20449;-84
2022/03/20 08:16:11;;;;;;;28.10;23.50;;;13.10;99.90;;;;;;5032127;28;20204;-82
2022/03/20 08:18:46;;;;;;;27.90;25.00;;;13.10;99.90;;;;;;5012892;28;20283;-82
2022/03/20 08:21:25;;;;;;;24.40;21.90;;;13.10;99.90;;;;;;5007666;28;20234;-82
2022/03/20 08:23:53;;;;;;;25.23;22.43;;;13.40;99.90;;;;;;5012014;28;20203;-83
2022/03/20 08:26:22;;;;;;;24.77;22.27;;;13.40;99.90;;;;;;5020310;28;20200;-80
2022/03/20 08:29:08;;;;;;;26.20;20.70;;;13.60;99.90;;;;;;5028763;28;20219;-83
2022/03/20 08:31:37;;;;;;;26.03;23.23;;;13.80;99.90;;;;;;5011166;28;20574;-82
2022/03/20 08:34:10;;;;;;;24.83;18.57;;;14.00;99.90;;;;;;5011037;28;20204;-81
2022/03/20 08:39:35;;;;;;;24.73;22.07;;;14.10;99.90;;;;;;5015110;28;20306;-82
2022/03/20 08:42:02;;;;;;;27.07;24.17;;;14.40;99.90;;;;;;5010905;28;20204;-83
2022/03/20 08:44:35;;;;;;;24.93;22.23;;;14.40;99.90;;;;;;5016141;28;20196;-82
2022/03/20 08:47:51;;;;;;;;;;;;;;;;;;;;;
2022/03/20 08:50:50;;;;;;;23.63;20.47;;;14.50;99.90;;;;;;4999777;28;20285;-84
2022/03/20 08:53:39;;;;;;;24.83;19.43;;;14.60;99.90;;;;;;5021395;28;20227;-82
2022/03/20 08:56:59;;;;;;;23.60;18.80;;;14.70;99.90;;;;;;5005431;28;20555;-81
2022/03/20 09:00:17;;;;;;;24.27;21.47;;;15.00;99.90;;;;;;4972749;28;20233;-81
2022/03/20 09:03:30;;;;;;;;;;;;;;;;;;;;;
2022/03/20 09:10:29;;;;;;;23.87;21.37;;;15.00;99.90;;;;;;4927032;29;20220;-83
2022/03/20 09:27:36;;;;;;;22.50;20.30;;;15.70;99.90;;;;;;5022593;28;20193;-82
2022/03/20 09:33:28;;;;;;;26.90;23.73;;;16.10;99.90;;;;;;5010611;28;20230;-83
2022/03/20 09:36:42;;;;;;;25.27;22.53;;;16.00;99.90;;;;;;5020148;28;20211;-83
2022/03/20 09:39:26;;;;;;;26.37;23.77;;;16.00;99.90;;;;;;5024674;28;20560;-84
2022/03/20 09:42:09;;;;;;;26.63;23.93;;;16.00;99.90;;;;;;5023220;28;20274;-83
2022/03/20 09:44:53;;;;;;;25.80;23.10;;;16.00;99.90;;;;;;5022876;28;20693;-82
2022/03/20 09:48:00;;;;;;;25.97;23.17;;;16.10;99.90;;;;;;5028228;28;20204;-83
2022/03/20 09:51:21;;;;;;;23.57;21.07;;;16.00;99.90;;;;;;5026155;28;20779;-83
2022/03/20 09:54:06;;;;;;;25.07;22.50;;;16.40;99.90;;;;;;5012444;28;20195;-83
2022/03/20 10:01:32;;;;;;;22.83;20.43;;;16.40;99.90;;;;;;5008250;28;20315;-81
2022/03/20 10:08:19;;;;;;;20.17;18.17;;;16.70;99.90;;;;;;5020033;28;20207;-82
2022/03/20 10:11:23;;;;;;;19.57;17.67;;;16.80;99.40;;;;;;5021860;28;20259;-82
2022/03/20 10:14:44;;;;;;;20.03;18.10;;;17.00;99.00;;;;;;5024100;28;20197;-81
2022/03/20 10:20:41;;;;;;;23.23;20.93;;;17.00;98.80;;;;;;5029653;28;20212;-84
2022/03/20 10:23:28;;;;;;;19.83;17.77;;;16.90;98.40;;;;;;5029968;28;20292;-81
2022/03/20 10:26:13;;;;;;;21.00;18.80;;;17.00;98.70;;;;;;5022017;28;20197;-81
2022/03/20 10:29:11;;;;;;;22.07;19.77;;;16.90;98.60;;;;;;5023810;28;20214;-81
2022/03/20 10:31:49;;;;;;;21.13;18.93;;;16.40;98.60;;;;;;5015653;28;20662;-83
2022/03/20 10:34:16;;;;;;;20.00;18.00;;;16.40;98.70;;;;;;5025537;28;20199;-82
2022/03/20 10:36:45;;;;;;;19.77;17.77;;;16.40;99.00;;;;;;5034437;28;20199;-81
2022/03/20 10:39:23;;;;;;;20.33;18.03;;;16.30;99.60;;;;;;5004972;28;20236;-81
2022/03/20 10:42:00;;;;;;;18.97;17.17;;;16.30;99.30;;;;;;5031940;28;20197;-81
2022/03/20 10:48:10;;;;;;;18.73;16.83;;;16.30;99.40;;;;;;5010746;28;20828;-81
2022/03/20 10:50:50;;;;;;;20.13;18.13;;;16.20;98.50;;;;;;5010433;28;20676;-82
2022/03/20 10:53:18;;;;;;;20.57;18.40;;;16.20;99.00;;;;;;5012808;28;20224;-81
2022/03/20 10:56:06;;;;;;;20.73;18.63;;;16.20;99.00;;;;;;5014499;28;20653;-82
2022/03/20 10:58:50;;;;;;;20.50;18.50;;;16.20;98.30;;;;;;4992111;28;20224;-81
2022/03/20 11:01:53;;;;;;;20.60;18.50;;;16.10;98.40;;;;;;5006598;28;20202;-84
2022/03/20 11:04:45;;;;;;;19.23;17.17;;;15.90;98.20;;;;;;4967758;28;20212;-81
2022/03/20 11:13:59;;;;;;;18.93;16.90;;;15.80;97.70;;;;;;4939868;28;20213;-83
2022/03/20 11:17:12;;;;;;;18.13;16.23;;;15.80;98.50;;;;;;4997327;28;20194;-83
2022/03/20 11:19:50;;;;;;;18.53;16.73;;;15.90;98.00;;;;;;4989052;28;20216;-83
2022/03/20 11:22:29;;;;;;;20.70;18.47;;;15.90;97.80;;;;;;4994356;28;21209;-84
2022/03/20 11:25:24;;;;;;;21.00;18.77;;;15.80;96.60;;;;;;5010621;28;20588;-82
2022/03/20 11:27:59;;;;;;;21.07;18.10;;;15.70;96.90;;;;;;5000883;28;20224;-83
2022/03/20 11:30:28;;;;;;;19.83;17.93;;;15.50;96.50;;;;;;5007467;28;20253;-85
2022/03/20 11:33:00;;;;;;;19.50;17.37;;;15.40;96.10;;;;;;4995430;28;20581;-83
2022/03/20 11:38:51;;;;;;;17.67;15.87;;;15.60;95.70;;;;;;4983665;28;20721;-85
2022/03/20 11:41:29;;;;;;;20.30;15.30;;;15.60;95.20;;;;;;4929184;29;20223;-84
2022/03/20 11:44:25;;;;;;;18.00;16.07;;;15.70;95.30;;;;;;4984794;28;20206;-82
2022/03/20 11:47:34;;;;;;;18.27;16.33;;;15.70;93.90;;;;;;4991066;28;20221;-84
2022/03/20 11:50:13;;;;;;;18.33;15.60;;;15.70;94.00;;;;;;5002265;28;20221;-83
2022/03/20 11:53:00;;;;;;;16.67;14.97;;;15.70;93.60;;;;;;4983222;28;20231;-83
2022/03/20 11:55:40;;;;;;;18.47;15.03;;;15.70;93.40;;;;;;4976808;28;20202;-83
2022/03/20 11:58:11;;;;;;;17.40;15.60;;;15.60;92.40;;;;;;4983760;28;20603;-82
2022/03/20 12:00:56;;;;;;;16.43;14.67;;;15.50;92.40;;;;;;4978235;28;20220;-83
2022/03/20 12:04:07;;;;;;;14.73;13.27;;;15.60;92.70;;;;;;4997956;28;20207;-83
2022/03/20 12:07:01;;;;;;;15.23;13.73;;;15.60;93.50;;;;;;4976279;28;20241;-83
2022/03/20 12:10:11;;;;;;;15.97;14.37;;;15.70;93.60;;;;;;4999094;28;20214;-82
2022/03/20 12:13:16;;;;;;;21.97;17.93;;;15.80;94.20;;;;;;4997077;28;20673;-83
2022/03/20 12:15:49;;;;;;;18.33;16.40;;;15.80;93.70;;;;;;4985567;28;20296;-81
2022/03/20 12:18:21;;;;;;;19.13;16.30;;;15.80;93.00;;;;;;5009101;28;20217;-84
2022/03/20 12:21:26;;;;;;;17.37;15.63;;;15.70;92.90;;;;;;4984642;28;20230;-83
2022/03/20 12:24:49;;;;;;;20.27;14.97;;;15.70;93.00;;;;;;5002956;28;20301;-83
2022/03/20 12:27:49;;;;;;;17.30;15.60;;;15.60;92.60;;;;;;4977602;28;20270;-81
2022/03/20 12:30:36;;;;;;;19.83;15.63;;;15.60;92.20;;;;;;4979351;28;20210;-81
2022/03/20 12:36:37;;;;;;;17.70;15.20;;;15.60;91.90;;;;;;4988350;28;20206;-82
2022/03/20 12:39:14;;;;;;;17.23;15.33;;;15.70;92.70;;;;;;4987523;28;20237;-83
2022/03/20 12:41:44;;;;;;;17.03;14.87;;;15.60;92.40;;;;;;5005892;28;20211;-83
2022/03/20 12:44:36;;;;;;;17.10;15.00;;;15.70;92.20;;;;;;5005571;28;20228;-83
2022/03/20 12:47:04;;;;;;;22.20;17.20;;;15.70;92.00;;;;;;4995504;28;20682;-82
2022/03/20 12:49:36;;;;;;;17.77;15.93;;;15.60;92.20;;;;;;4995049;28;20245;-80
2022/03/20 12:52:26;;;;;;;19.20;16.87;;;15.70;92.20;;;;;;5007967;28;20205;-84
2022/03/20 12:55:02;;;;;;;20.43;17.50;;;15.70;91.80;;;;;;5006819;28;20211;-84
2022/03/20 12:57:40;;;;;;;18.23;16.43;;;15.70;91.20;;;;;;4998961;28;20200;-83
2022/03/20 13:00:14;;;;;;;17.53;15.70;;;15.80;91.70;;;;;;4987782;28;20214;-84
2022/03/20 13:03:26;;;;;;;21.77;16.37;;;15.80;91.70;;;;;;4987761;28;20204;-83
2022/03/20 13:06:13;;;;;;;;;;;;;;;;;;;;;
2022/03/20 13:08:48;;;;;;;20.87;18.77;;;15.90;90.60;;;;;;5002483;28;20222;-82
2022/03/20 13:17:25;;;;;;;20.90;16.93;;;15.90;90.80;;;;;;4952373;28;20209;-83
2022/03/20 13:19:56;;;;;;;19.70;17.60;;;15.90;90.80;;;;;;5004766;28;20582;-80
2022/03/20 13:25:39;;;;;;;23.53;19.50;;;15.90;90.60;;;;;;4978866;28;20572;-80
2022/03/20 13:28:18;;;;;;;25.30;19.27;;;15.90;90.40;;;;;;5005088;28;20230;-84
2022/03/20 13:30:48;;;;;;;21.23;17.90;;;15.90;91.10;;;;;;4976457;28;20230;-85
2022/03/20 13:33:29;;;;;;;20.73;17.63;;;16.00;91.10;;;;;;4978407;28;20195;-83
2022/03/20 13:36:00;;;;;;;24.33;19.73;;;16.00;90.80;;;;;;4997502;28;20731;-86
2022/03/20 13:38:46;;;;;;;21.00;18.53;;;16.00;90.80;;;;;;4982910;28;20247;-86
2022/03/20 13:41:48;;;;;;;23.63;19.47;;;16.00;90.60;;;;;;5007468;28;20612;-85
2022/03/20 13:44:16;;;;;;;23.60;19.13;;;15.90;91.00;;;;;;5002077;28;20729;-85
2022/03/20 13:46:45;;;;;;;23.97;19.37;;;15.90;91.70;;;;;;5001283;28;20209;-84
2022/03/20 13:49:12;;;;;;;22.10;17.77;;;16.00;91.50;;;;;;5029658;22;20310;-83
2022/03/20 13:51:40;;;;;;;21.87;19.00;;;16.10;91.90;;;;;;5015743;28;20668;-84
2022/03/20 13:54:16;;;;;;;21.10;19.00;;;16.10;92.30;;;;;;5015063;28;20203;-83
2022/03/20 13:56:43;;;;;;;23.67;20.60;;;16.10;92.00;;;;;;5033205;28;20205;-83
2022/03/20 13:59:12;;;;;;;22.70;20.27;;;16.10;91.20;;;;;;5016171;28;20237;-83
2022/03/20 14:01:45;;;;;;;23.30;20.37;;;16.10;92.10;;;;;;5013735;28;20212;-84
2022/03/20 14:04:14;;;;;;;23.73;20.53;;;16.20;92.10;;;;;;5016569;28;20215;-86
2022/03/20 14:06:42;;;;;;;25.00;21.27;;;16.10;91.40;;;;;;5010729;28;20199;-80
2022/03/20 14:09:09;;;;;;;25.43;20.37;;;16.10;91.90;;;;;;5033270;28;20223;-79
2022/03/20 14:11:38;;;;;;;24.23;20.40;;;16.10;91.40;;;;;;5017094;28;20204;-79
2022/03/20 14:14:06;;;;;;;24.63;20.07;;;16.10;91.80;;;;;;5013966;28;20665;-79
2022/03/20 14:16:34;;;;;;;24.77;20.23;;;16.10;91.60;;;;;;5015908;28;20643;-81
2022/03/20 14:19:05;;;;;;;24.07;21.23;;;16.10;92.00;;;;;;5030524;28;20309;-80
2022/03/20 14:21:32;;;;;;;23.30;20.42;;;16.10;91.90;;;;;;5033141;28;20524;-81
2022/03/20 14:24:03;;;;;;;24.70;20.97;;;16.20;91.90;;;;;;5029403;28;20199;-80
2022/03/20 14:26:31;;;;;;;25.33;22.63;;;16.20;92.30;;;;;;5021535;28;20223;-80
2022/03/20 14:29:07;;;;;;;24.03;20.90;;;16.10;92.50;;;;;;5008254;28;20247;-80
2022/03/20 14:40:13;;;;;;;27.67;24.20;;;16.10;92.90;;;;;;4983047;28;20223;-78
2022/03/20 14:42:41;;;;;;;26.93;23.40;;;16.10;92.70;;;;;;5028815;28;20196;-79
2022/03/20 14:45:10;;;;;;;23.97;21.27;;;16.00;92.80;;;;;;5023423;28;20202;-79
2022/03/20 14:47:38;;;;;;;26.53;22.13;;;16.10;93.20;;;;;;5010806;28;20202;-79
2022/03/20 14:50:06;;;;;;;25.63;22.77;;;16.10;93.00;;;;;;5026365;28;20192;-79
2022/03/20 14:52:34;;;;;;;25.67;21.53;;;16.10;92.90;;;;;;5019707;28;20609;-79
2022/03/20 14:55:04;;;;;;;25.03;22.33;;;16.10;92.90;;;;;;5025489;28;20280;-78
2022/03/20 14:57:31;;;;;;;24.87;21.70;;;16.20;92.70;;;;;;5018033;28;20207;-80
2022/03/20 14:59:59;;;;;;;25.03;22.20;;;16.20;92.80;;;;;;5024796;28;20300;-80